Time;durP1;ratioP1;P1;durP2;ratioP2;P2;SDS_P1;SDS_P2;PMS_P1;PMS_P2;Temp;Humidity;BMP_temperature;BMP_pressure;BME280_temperature;BME280_humidity;BME280_pressure;Samples;Min_cycle;Max_cycle;Signal;HPM_P1;HPM_P2
2022/08/12 00:44:51;;;;;;;2.00;1.90;;;;;;;;;;5040212;28;20051;-70
2022/08/12 00:47:18;;;;;;;1.90;1.80;;;;;;;;;;5040532;28;20053;-69
2022/08/12 00:49:45;;;;;;;6.60;2.00;;;;;;;;;;5040393;28;20049;-68
2022/08/12 00:52:12;;;;;;;2.17;1.98;;;;;;;;;;5038860;28;20075;-68
2022/08/12 00:54:38;;;;;;;2.70;2.10;;;;;;;;;;5040035;28;20045;-69
2022/08/12 00:57:07;;;;;;;4.45;2.00;;;;;;;;;;5038348;28;20048;-68
2022/08/12 00:59:34;;;;;;;5.80;2.30;;;;;;;;;;5040298;28;20052;-68
2022/08/12 01:02:02;;;;;;;9.10;2.20;;;;;;;;;;5040137;28;20128;-69
2022/08/12 01:12:47;;;;;;;4.68;2.03;;;;;;;;;;5040275;28;20479;-69
2022/08/12 01:15:13;;;;;;;6.22;2.45;;;;;;;;;;5038462;28;20060;-69
2022/08/12 01:17:43;;;;;;;4.72;2.17;;;;;;;;;;5039843;28;20053;-70
2022/08/12 01:20:17;;;;;;;2.90;2.08;;;;;;;;;;5039363;28;20068;-70
2022/08/12 01:23:30;;;;;;;2.40;2.20;;;;;;;;;;5039216;28;20045;-70
2022/08/12 01:25:59;;;;;;;2.80;2.03;;;;;;;;;;4992472;28;20059;-69
2022/08/12 01:28:27;;;;;;;3.55;2.20;;;;;;;;;;5039805;28;20049;-69
2022/08/12 01:30:53;;;;;;;3.60;2.08;;;;;;;;;;5038662;28;20391;-70
2022/08/12 01:33:20;;;;;;;7.65;2.00;;;;;;;;;;5039679;28;20094;-69
2022/08/12 01:35:57;;;;;;;7.68;2.35;;;;;;;;;;5039850;28;20594;-72
2022/08/12 01:38:25;;;;;;;3.10;2.40;;;;;;;;;;5039364;28;20677;-70
2022/08/12 01:40:53;;;;;;;4.03;2.15;;;;;;;;;;5039701;28;20147;-69
2022/08/12 01:43:21;;;;;;;4.80;2.50;;;;;;;;;;5039341;28;20163;-71
2022/08/12 01:46:06;;;;;;;2.38;2.10;;;;;;;;;;5037849;28;20060;-69
2022/08/12 01:48:53;;;;;;;3.33;2.10;;;;;;;;;;5039358;28;20053;-69
2022/08/12 01:51:39;;;;;;;5.90;2.30;;;;;;;;;;5034644;28;20053;-69
2022/08/12 01:54:09;;;;;;;4.03;2.35;;;;;;;;;;5038992;28;20044;-69
2022/08/12 01:56:44;;;;;;;2.33;2.10;;;;;;;;;;5038107;28;20072;-69
2022/08/12 02:02:00;;;;;;;3.05;1.90;;;;;;;;;;5038788;28;20047;-69
2022/08/12 02:13:20;;;;;;;2.20;2.00;;;;;;;;;;5038790;28;20045;-68
2022/08/12 02:16:11;;;;;;;4.78;1.92;;;;;;;;;;5039323;28;20059;-70
2022/08/12 02:18:51;;;;;;;5.57;2.47;;;;;;;;;;5039402;28;20052;-68
2022/08/12 02:21:52;;;;;;;3.28;2.40;;;;;;;;;;5037904;28;20149;-68
2022/08/12 02:24:20;;;;;;;2.55;2.10;;;;;;;;;;4977596;28;20556;-68
2022/08/12 02:26:48;;;;;;;4.50;2.05;;;;;;;;;;5027264;28;20040;-68
2022/08/12 02:29:14;;;;;;;4.10;1.90;;;;;;;;;;5038642;28;20429;-67
2022/08/12 02:31:42;;;;;;;2.38;2.17;;;;;;;;;;5039032;28;20049;-68
2022/08/12 02:34:08;;;;;;;2.40;2.20;;;;;;;;;;5039108;28;20415;-68
2022/08/12 02:36:37;;;;;;;3.42;1.90;;;;;;;;;;5044054;28;20051;-71
2022/08/12 02:39:06;;;;;;;2.72;2.25;;;;;;;;;;5042066;28;20032;-69
2022/08/12 02:41:33;;;;;;;2.03;1.83;;;;;;;;;;5042426;28;20048;-70
2022/08/12 02:44:03;;;;;;;5.75;2.33;;;;;;;;;;5042281;28;20087;-71
2022/08/12 02:46:31;;;;;;;2.45;2.03;;;;;;;;;;5042549;28;20068;-71
2022/08/12 02:49:05;;;;;;;3.20;2.20;;;;;;;;;;5041696;28;20057;-69
2022/08/12 02:51:37;;;;;;;10.18;2.70;;;;;;;;;;5042081;28;20469;-69
2022/08/12 02:54:04;;;;;;;7.35;2.20;;;;;;;;;;5042559;28;20049;-69
2022/08/12 02:56:31;;;;;;;7.38;2.60;;;;;;;;;;5041839;28;20053;-68
2022/08/12 02:58:58;;;;;;;3.28;2.35;;;;;;;;;;5041541;28;20033;-68
2022/08/12 03:01:32;;;;;;;2.55;2.13;;;;;;;;;;5041879;28;20527;-68
2022/08/12 03:03:59;;;;;;;9.02;2.17;;;;;;;;;;5042113;28;20403;-68
2022/08/12 03:06:31;;;;;;;4.07;2.40;;;;;;;;;;5041553;28;20049;-69
2022/08/12 03:08:57;;;;;;;4.90;2.30;;;;;;;;;;5040353;28;20522;-68
2022/08/12 03:11:46;;;;;;;5.03;2.28;;;;;;;;;;5042259;28;20495;-68
2022/08/12 03:14:17;;;;;;;5.72;2.38;;;;;;;;;;5040516;28;20050;-68
2022/08/12 03:16:49;;;;;;;5.10;2.17;;;;;;;;;;5041362;28;20041;-71
2022/08/12 03:19:19;;;;;;;2.40;2.20;;;;;;;;;;5041850;28;20049;-68
2022/08/12 03:21:49;;;;;;;2.75;1.92;;;;;;;;;;5041621;28;20091;-68
2022/08/12 03:24:17;;;;;;;4.13;2.10;;;;;;;;;;5041874;28;20045;-68
2022/08/12 03:26:46;;;;;;;3.25;2.25;;;;;;;;;;5041779;28;20182;-69
2022/08/12 03:29:15;;;;;;;2.50;2.20;;;;;;;;;;5040000;28;20052;-69
2022/08/12 03:31:42;;;;;;;3.22;2.45;;;;;;;;;;5041492;28;20040;-72
2022/08/12 03:34:11;;;;;;;4.22;2.00;;;;;;;;;;5042051;28;20123;-69
2022/08/12 03:36:39;;;;;;;3.35;2.30;;;;;;;;;;5041806;28;20429;-69
2022/08/12 03:41:56;;;;;;;4.68;2.22;;;;;;;;;;5041564;28;20067;-69
2022/08/12 04:01:21;;;;;;;2.65;2.40;;;;;;;;;;5038067;28;20057;-69
2022/08/12 04:03:51;;;;;;;7.72;2.22;;;;;;;;;;5039186;28;20106;-69
2022/08/12 04:06:20;;;;;;;3.33;2.17;;;;;;;;;;5041109;28;20048;-70
2022/08/12 04:08:57;;;;;;;3.05;2.35;;;;;;;;;;5041458;28;20053;-69
2022/08/12 04:14:19;;;;;;;5.70;2.10;;;;;;;;;;5041912;28;20045;-69
2022/08/12 04:16:49;;;;;;;2.35;2.00;;;;;;;;;;5040862;28;20583;-69
2022/08/12 04:19:15;;;;;;;3.63;2.20;;;;;;;;;;5040270;28;20044;-70
2022/08/12 04:21:41;;;;;;;4.40;2.10;;;;;;;;;;5040877;28;20041;-69
2022/08/12 04:24:08;;;;;;;5.13;2.17;;;;;;;;;;5039883;28;20044;-69
2022/08/12 04:26:38;;;;;;;4.40;2.00;;;;;;;;;;5040240;28;20049;-70
2022/08/12 04:29:05;;;;;;;7.55;2.35;;;;;;;;;;5055186;28;20060;-70
2022/08/12 04:31:35;;;;;;;2.95;2.03;;;;;;;;;;5038968;28;20087;-69
2022/08/12 04:34:02;;;;;;;7.90;2.13;;;;;;;;;;5038784;28;20444;-70
2022/08/12 04:36:28;;;;;;;3.63;2.08;;;;;;;;;;5039890;28;20072;-70
2022/08/12 04:38:54;;;;;;;3.45;2.72;;;;;;;;;;5037627;28;20044;-70
2022/08/12 04:41:20;;;;;;;4.07;2.28;;;;;;;;;;5038198;28;20051;-69
2022/08/12 04:43:47;;;;;;;3.08;2.22;;;;;;;;;;5038554;28;20052;-69
2022/08/12 04:46:13;;;;;;;9.27;2.30;;;;;;;;;;5038952;28;20048;-69
2022/08/12 04:48:38;;;;;;;3.05;2.20;;;;;;;;;;5039094;28;20049;-69
2022/08/12 04:51:05;;;;;;;5.70;2.17;;;;;;;;;;5038352;28;20060;-68
2022/08/12 04:53:31;;;;;;;3.75;2.45;;;;;;;;;;5039434;28;20059;-69
2022/08/12 04:55:57;;;;;;;3.65;2.63;;;;;;;;;;5038409;28;20052;-69
2022/08/12 04:58:23;;;;;;;5.22;2.20;;;;;;;;;;5039809;28;20053;-69
2022/08/12 05:00:48;;;;;;;4.22;2.65;;;;;;;;;;5040099;28;20041;-69
2022/08/12 05:03:14;;;;;;;3.03;2.35;;;;;;;;;;5038279;28;20096;-72
2022/08/12 05:05:41;;;;;;;5.55;2.17;;;;;;;;;;5039977;28;20144;-70
2022/08/12 05:08:16;;;;;;;8.40;2.47;;;;;;;;;;5039585;28;20049;-70
2022/08/12 05:10:45;;;;;;;5.38;2.10;;;;;;;;;;5040343;28;20528;-70
2022/08/12 05:13:14;;;;;;;5.55;2.38;;;;;;;;;;5038660;28;20153;-70
2022/08/12 05:15:41;;;;;;;3.35;2.35;;;;;;;;;;5038100;28;20477;-70
2022/08/12 05:18:06;;;;;;;4.15;2.30;;;;;;;;;;5038070;28;20068;-70
2022/08/12 05:20:33;;;;;;;2.92;1.98;;;;;;;;;;5038706;28;20706;-70
2022/08/12 05:23:16;;;;;;;2.72;1.90;;;;;;;;;;5037447;28;20049;-72
2022/08/12 05:25:43;;;;;;;5.20;2.08;;;;;;;;;;5038952;28;20496;-70
2022/08/12 05:28:11;;;;;;;4.43;2.13;;;;;;;;;;5038348;28;20156;-70
2022/08/12 05:30:37;;;;;;;3.53;2.00;;;;;;;;;;5037950;28;20629;-70
2022/08/12 05:33:04;;;;;;;4.43;2.08;;;;;;;;;;5038290;28;20041;-71
2022/08/12 05:35:35;;;;;;;2.90;2.10;;;;;;;;;;5040459;28;20098;-70
2022/08/12 05:40:47;;;;;;;3.75;2.03;;;;;;;;;;5035578;28;20658;-70
2022/08/12 05:43:13;;;;;;;3.38;2.53;;;;;;;;;;5039648;28;20056;-69
2022/08/12 05:45:38;;;;;;;5.78;2.17;;;;;;;;;;5039629;28;20048;-69
2022/08/12 05:48:05;;;;;;;3.78;2.08;;;;;;;;;;5040079;28;20049;-71
2022/08/12 05:50:31;;;;;;;3.78;2.25;;;;;;;;;;5038353;28;20079;-71
2022/08/12 05:52:56;;;;;;;2.17;1.98;;;;;;;;;;5039415;28;20049;-71
2022/08/12 05:55:22;;;;;;;4.57;2.10;;;;;;;;;;5039403;28;20045;-71
2022/08/12 05:57:54;;;;;;;2.28;1.98;;;;;;;;;;5039971;28;20156;-70
2022/08/12 06:00:21;;;;;;;5.05;2.10;;;;;;;;;;5039222;28;20045;-70
2022/08/12 06:02:46;;;;;;;3.47;2.10;;;;;;;;;;5039642;28;20413;-70
2022/08/12 06:05:12;;;;;;;2.80;1.90;;;;;;;;;;5037737;28;20681;-71
2022/08/12 06:07:44;;;;;;;4.03;2.03;;;;;;;;;;5039960;28;20048;-71
2022/08/12 06:10:10;;;;;;;3.28;2.13;;;;;;;;;;5043312;28;20052;-71
2022/08/12 06:12:36;;;;;;;2.92;2.20;;;;;;;;;;5041496;28;20140;-71
2022/08/12 06:15:03;;;;;;;8.10;2.10;;;;;;;;;;5042762;28;20044;-71
2022/08/12 06:17:29;;;;;;;3.10;2.13;;;;;;;;;;5042072;28;20049;-71
2022/08/12 06:19:57;;;;;;;5.40;2.10;;;;;;;;;;5043149;28;20503;-70
2022/08/12 06:22:24;;;;;;;4.25;2.08;;;;;;;;;;5043041;28;20844;-71
2022/08/12 06:24:52;;;;;;;6.63;2.30;;;;;;;;;;5038216;28;20107;-72
2022/08/12 06:27:18;;;;;;;6.25;2.10;;;;;;;;;;5041281;28;20422;-71
2022/08/12 06:29:44;;;;;;;7.97;2.17;;;;;;;;;;5039553;28;20545;-71
2022/08/12 06:32:09;;;;;;;3.35;2.33;;;;;;;;;;5039695;28;20053;-71
2022/08/12 06:34:35;;;;;;;5.15;2.00;;;;;;;;;;5039109;28;20822;-71
2022/08/12 06:37:01;;;;;;;2.00;1.80;;;;;;;;;;5040836;28;20075;-70
2022/08/12 06:39:26;;;;;;;2.80;1.90;;;;;;;;;;5041752;28;20060;-71
2022/08/12 06:44:35;;;;;;;5.47;1.80;;;;;;;;;;5040837;28;21072;-72
2022/08/12 06:47:01;;;;;;;2.53;1.80;;;;;;;;;;5040633;28;20037;-71
2022/08/12 06:49:32;;;;;;;2.05;1.83;;;;;;;;;;5041455;28;20523;-71
2022/08/12 06:51:57;;;;;;;4.13;2.22;;;;;;;;;;5042623;28;20155;-70
2022/08/12 06:54:24;;;;;;;2.85;1.90;;;;;;;;;;5042655;28;20056;-72
2022/08/12 06:56:51;;;;;;;3.83;1.80;;;;;;;;;;5042551;28;20041;-71
2022/08/12 06:59:20;;;;;;;3.97;1.95;;;;;;;;;;5042175;28;20067;-72
2022/08/12 07:01:45;;;;;;;4.05;2.10;;;;;;;;;;5041783;28;20052;-71
2022/08/12 07:04:13;;;;;;;4.63;2.08;;;;;;;;;;5042711;28;20049;-72
2022/08/12 07:06:39;;;;;;;5.78;2.33;;;;;;;;;;5042835;28;20110;-71
2022/08/12 07:09:05;;;;;;;4.10;1.92;;;;;;;;;;5040809;28;20041;-72
2022/08/12 07:11:32;;;;;;;6.85;1.90;;;;;;;;;;5042379;28;20095;-72
2022/08/12 07:14:00;;;;;;;5.07;1.92;;;;;;;;;;5042375;28;20060;-71
2022/08/12 07:16:50;;;;;;;3.58;1.88;;;;;;;;;;5042223;28;21095;-70
2022/08/12 07:19:12;;;;;;;3.47;1.75;;;;;;;;;;5040595;28;20507;-71
2022/08/12 07:21:38;;;;;;;5.65;1.88;;;;;;;;;;5041549;28;20056;-70
2022/08/12 07:24:04;;;;;;;2.40;1.80;;;;;;;;;;5042719;28;20054;-71
2022/08/12 07:26:30;;;;;;;4.38;1.90;;;;;;;;;;5041093;28;20574;-70
2022/08/12 07:28:55;;;;;;;4.20;1.55;;;;;;;;;;5040103;28;20139;-71
2022/08/12 07:31:20;;;;;;;5.03;2.20;;;;;;;;;;5039170;28;20079;-70
2022/08/12 07:33:48;;;;;;;2.08;1.85;;;;;;;;;;5041598;28;20059;-73
2022/08/12 07:36:13;;;;;;;4.47;2.10;;;;;;;;;;5042258;28;20053;-73
2022/08/12 07:38:42;;;;;;;5.47;1.80;;;;;;;;;;5042199;28;20045;-70
2022/08/12 07:41:15;;;;;;;5.68;1.80;;;;;;;;;;5039918;28;20056;-70
2022/08/12 07:43:49;;;;;;;2.70;1.88;;;;;;;;;;5042160;28;20075;-71
2022/08/12 07:46:19;;;;;;;2.38;1.60;;;;;;;;;;5041759;28;20048;-71
2022/08/12 07:48:53;;;;;;;5.53;2.00;;;;;;;;;;5041381;28;20076;-71
2022/08/12 07:51:20;;;;;;;2.72;1.90;;;;;;;;;;5040322;28;20118;-71
2022/08/12 07:53:48;;;;;;;5.68;2.03;;;;;;;;;;5041792;28;20103;-70
2022/08/12 07:56:14;;;;;;;3.30;1.85;;;;;;;;;;5042139;28;20577;-69
2022/08/12 07:58:40;;;;;;;6.75;1.83;;;;;;;;;;5041718;28;20052;-69
2022/08/12 08:01:11;;;;;;;3.75;2.03;;;;;;;;;;5040101;28;20032;-71
2022/08/12 08:04:54;;;;;;;3.90;1.80;;;;;;;;;;5040806;28;20456;-70
2022/08/12 08:06:30;;;;;;;8.63;2.30;;;;;;;;;;5041013;28;20415;-72
2022/08/12 08:08:55;;;;;;;6.82;1.80;;;;;;;;;;5039749;28;20251;-71
2022/08/12 08:14:08;;;;;;;3.08;1.98;;;;;;;;;;5040101;28;20364;-70
2022/08/12 08:16:36;;;;;;;2.67;1.90;;;;;;;;;;5040773;28;20063;-71
2022/08/12 08:19:03;;;;;;;5.97;1.88;;;;;;;;;;5040776;28;20040;-71
2022/08/12 08:21:32;;;;;;;3.60;1.80;;;;;;;;;;5039121;28;20139;-71
2022/08/12 08:24:13;;;;;;;5.20;2.00;;;;;;;;;;5029877;28;20045;-70
2022/08/12 08:26:50;;;;;;;4.32;1.90;;;;;;;;;;5039409;28;20049;-74
2022/08/12 08:29:17;;;;;;;4.93;2.00;;;;;;;;;;5022385;28;20101;-72
2022/08/12 08:31:49;;;;;;;7.85;2.00;;;;;;;;;;5039423;28;20049;-73
2022/08/12 08:34:16;;;;;;;4.78;1.70;;;;;;;;;;5039632;28;20049;-73
2022/08/12 08:36:43;;;;;;;1.95;1.70;;;;;;;;;;5038151;28;20056;-73
2022/08/12 08:39:10;;;;;;;5.43;2.40;;;;;;;;;;5040080;28;20071;-71
2022/08/12 08:44:20;;;;;;;3.75;1.90;;;;;;;;;;5039981;28;20132;-70
2022/08/12 08:46:48;;;;;;;3.80;2.83;;;;;;;;;;5040466;28;20148;-72
2022/08/12 08:49:14;;;;;;;3.13;2.00;;;;;;;;;;5040409;28;20055;-72
2022/08/12 08:51:40;;;;;;;7.95;2.00;;;;;;;;;;5040079;28;20056;-75
2022/08/12 08:54:07;;;;;;;2.55;1.90;;;;;;;;;;5039810;28;20056;-71
2022/08/12 08:56:41;;;;;;;2.90;1.73;;;;;;;;;;5041067;28;20057;-72
2022/08/12 08:59:07;;;;;;;3.20;1.90;;;;;;;;;;5039279;28;20056;-72
2022/08/12 09:01:32;;;;;;;11.90;1.80;;;;;;;;;;5038218;28;21391;-70
2022/08/12 09:03:57;;;;;;;4.28;1.77;;;;;;;;;;5036259;28;20127;-71
2022/08/12 09:06:23;;;;;;;3.17;2.10;;;;;;;;;;5038268;28;20127;-70
2022/08/12 09:08:48;;;;;;;5.75;2.05;;;;;;;;;;5037525;28;20143;-71
2022/08/12 09:13:58;;;;;;;4.78;1.95;;;;;;;;;;5035114;28;20577;-70
2022/08/12 09:16:23;;;;;;;3.05;1.70;;;;;;;;;;5036402;28;20036;-71
2022/08/12 09:18:49;;;;;;;4.65;1.70;;;;;;;;;;5034515;28;20057;-70
2022/08/12 09:21:14;;;;;;;4.82;2.22;;;;;;;;;;5036972;28;20056;-70
2022/08/12 09:23:41;;;;;;;13.93;1.85;;;;;;;;;;5036132;28;20045;-71
2022/08/12 09:26:08;;;;;;;2.22;1.60;;;;;;;;;;5037383;28;20045;-71
2022/08/12 09:28:34;;;;;;;3.50;1.70;;;;;;;;;;5039428;28;20400;-70
2022/08/12 09:31:00;;;;;;;1.67;1.50;;;;;;;;;;5037607;28;20049;-71
2022/08/12 09:33:29;;;;;;;2.92;1.70;;;;;;;;;;5038051;28;20405;-70
2022/08/12 09:35:56;;;;;;;3.65;1.60;;;;;;;;;;5039354;28;20045;-73
2022/08/12 09:38:23;;;;;;;4.65;1.52;;;;;;;;;;5039061;28;20052;-71
2022/08/12 09:40:49;;;;;;;2.13;1.67;;;;;;;;;;5039456;28;20049;-70
2022/08/12 09:46:01;;;;;;;2.65;1.80;;;;;;;;;;5044253;28;20049;-70
2022/08/12 09:48:28;;;;;;;6.32;1.70;;;;;;;;;;5042422;28;20064;-71
2022/08/12 09:50:53;;;;;;;3.78;1.60;;;;;;;;;;5041843;28;20456;-70
2022/08/12 09:53:23;;;;;;;3.47;1.65;;;;;;;;;;5042388;28;20887;-70
2022/08/12 09:55:56;;;;;;;1.58;1.48;;;;;;;;;;5038466;28;20127;-70
2022/08/12 09:58:28;;;;;;;3.67;1.65;;;;;;;;;;5041350;28;20040;-70
2022/08/12 10:01:03;;;;;;;3.28;1.80;;;;;;;;;;5041738;28;20455;-70
2022/08/12 10:03:35;;;;;;;3.25;1.50;;;;;;;;;;4995626;28;20100;-71
2022/08/12 10:06:05;;;;;;;2.03;1.50;;;;;;;;;;5041341;28;20100;-71
2022/08/12 10:08:33;;;;;;;6.97;1.40;;;;;;;;;;5026087;28;20060;-71
2022/08/12 10:13:45;;;;;;;4.03;1.40;;;;;;;;;;5043837;28;20048;-70
2022/08/12 10:16:11;;;;;;;5.55;1.40;;;;;;;;;;5042801;28;20105;-70
2022/08/12 10:18:41;;;;;;;3.72;1.40;;;;;;;;;;5025275;28;20048;-70
2022/08/12 10:21:08;;;;;;;4.65;1.52;;;;;;;;;;5042093;28;20557;-71
2022/08/12 10:23:35;;;;;;;2.13;1.20;;;;;;;;;;5042903;28;20060;-71
2022/08/12 10:31:28;;;;;;;3.38;1.27;;;;;;;;;;5007829;28;20049;-71
2022/08/12 10:33:54;;;;;;;3.88;1.40;;;;;;;;;;5042682;28;20044;-73
2022/08/12 10:36:19;;;;;;;1.17;1.05;;;;;;;;;;5042262;28;20057;-71
2022/08/12 10:38:46;;;;;;;5.70;1.30;;;;;;;;;;5043230;28;20052;-73
2022/08/12 10:43:55;;;;;;;2.38;1.60;;;;;;;;;;5042670;28;20053;-71
2022/08/12 10:46:21;;;;;;;1.88;1.25;;;;;;;;;;5042580;28;20063;-73
2022/08/12 10:48:47;;;;;;;4.55;1.20;;;;;;;;;;5041106;28;20053;-72
2022/08/12 10:51:14;;;;;;;2.15;1.23;;;;;;;;;;5036676;28;20062;-72
2022/08/12 10:53:42;;;;;;;2.50;1.00;;;;;;;;;;5042399;28;20045;-72
2022/08/12 10:56:10;;;;;;;4.63;1.20;;;;;;;;;;5040896;28;20049;-72
2022/08/12 10:58:39;;;;;;;1.50;1.02;;;;;;;;;;5041765;28;20055;-70
2022/08/12 11:01:05;;;;;;;5.03;1.42;;;;;;;;;;5041282;28;20043;-71
2022/08/12 11:03:36;;;;;;;5.90;1.35;;;;;;;;;;5042122;28;20045;-71
2022/08/12 11:06:03;;;;;;;2.63;1.30;;;;;;;;;;5040884;28;20159;-71
2022/08/12 11:08:28;;;;;;;1.45;1.15;;;;;;;;;;5042044;28;20887;-72
2022/08/12 11:10:54;;;;;;;6.07;1.30;;;;;;;;;;5041379;28;20041;-70
2022/08/12 11:13:19;;;;;;;2.25;1.15;;;;;;;;;;5041313;28;20079;-70
2022/08/12 11:15:45;;;;;;;2.90;1.10;;;;;;;;;;5040715;28;20047;-71
2022/08/12 11:18:11;;;;;;;5.25;1.10;;;;;;;;;;5039820;28;20068;-72
2022/08/12 11:20:36;;;;;;;1.40;1.15;;;;;;;;;;5041335;28;20071;-72
2022/08/12 11:23:02;;;;;;;2.50;1.00;;;;;;;;;;5041891;28;20072;-72
2022/08/12 11:25:28;;;;;;;1.38;1.00;;;;;;;;;;5042466;28;20059;-72
2022/08/12 11:27:53;;;;;;;2.33;1.10;;;;;;;;;;5043048;28;20392;-72
2022/08/12 11:30:19;;;;;;;3.47;1.20;;;;;;;;;;5041960;28;20130;-71
2022/08/12 11:32:44;;;;;;;2.90;1.20;;;;;;;;;;5042098;28;20102;-72
2022/08/12 11:35:10;;;;;;;3.22;1.42;;;;;;;;;;5039975;28;20410;-72
2022/08/12 11:37:37;;;;;;;4.80;1.35;;;;;;;;;;5041762;28;20499;-72
2022/08/12 11:40:04;;;;;;;4.72;1.02;;;;;;;;;;5039133;28;20041;-73
2022/08/12 11:42:30;;;;;;;9.57;1.63;;;;;;;;;;5039830;28;20037;-72
2022/08/12 11:44:55;;;;;;;3.88;1.40;;;;;;;;;;5042314;28;20522;-73
2022/08/12 11:47:21;;;;;;;1.52;1.33;;;;;;;;;;5041583;28;20048;-73
2022/08/12 11:49:51;;;;;;;2.63;1.38;;;;;;;;;;5042716;28;20068;-73
2022/08/12 11:52:16;;;;;;;3.83;1.40;;;;;;;;;;5022686;28;20088;-72
2022/08/12 11:54:42;;;;;;;1.27;1.15;;;;;;;;;;5042453;28;20083;-73
2022/08/12 11:57:07;;;;;;;2.90;1.30;;;;;;;;;;5041584;28;20045;-72
2022/08/12 11:59:32;;;;;;;2.78;1.10;;;;;;;;;;5039995;28;20041;-72
2022/08/12 12:01:58;;;;;;;3.30;1.00;;;;;;;;;;5041901;28;20572;-72
2022/08/12 12:04:23;;;;;;;1.33;1.23;;;;;;;;;;5041186;28;20063;-72
2022/08/12 12:06:49;;;;;;;1.40;1.25;;;;;;;;;;5040048;28;20628;-73
2022/08/12 12:09:14;;;;;;;2.35;1.30;;;;;;;;;;5042029;28;20133;-72
2022/08/12 12:11:42;;;;;;;2.95;1.30;;;;;;;;;;5039787;28;20057;-75
2022/08/12 12:14:07;;;;;;;2.50;1.20;;;;;;;;;;5022812;28;20040;-73
2022/08/12 12:16:33;;;;;;;2.08;1.17;;;;;;;;;;5041052;28;20415;-71
2022/08/12 12:18:58;;;;;;;1.08;0.98;;;;;;;;;;5040266;28;20053;-73
2022/08/12 12:21:24;;;;;;;2.50;0.90;;;;;;;;;;5040137;28;20403;-75
2022/08/12 12:23:49;;;;;;;1.88;1.00;;;;;;;;;;5040773;28;20501;-73
2022/08/12 12:26:14;;;;;;;4.05;1.10;;;;;;;;;;5039860;28;21090;-73
2022/08/12 12:28:41;;;;;;;1.10;1.00;;;;;;;;;;5040268;28;20151;-73
2022/08/12 12:31:07;;;;;;;2.33;1.20;;;;;;;;;;5039332;28;20566;-74
2022/08/12 12:33:33;;;;;;;1.42;1.33;;;;;;;;;;5042260;28;20048;-74
2022/08/12 12:35:58;;;;;;;1.70;1.30;;;;;;;;;;5040596;28;20139;-75
2022/08/12 12:38:24;;;;;;;3.63;1.10;;;;;;;;;;5040407;28;20140;-74
2022/08/12 12:40:50;;;;;;;4.95;1.00;;;;;;;;;;5038571;28;20044;-75
2022/08/12 12:43:16;;;;;;;1.02;1.02;;;;;;;;;;5039853;28;20041;-74
2022/08/12 12:45:43;;;;;;;2.85;0.98;;;;;;;;;;5040123;28;20045;-76
2022/08/12 12:48:10;;;;;;;1.98;0.90;;;;;;;;;;5039626;28;20048;-75
2022/08/12 12:50:40;;;;;;;2.78;1.02;;;;;;;;;;5022505;28;20037;-73
2022/08/12 12:53:08;;;;;;;1.45;1.02;;;;;;;;;;5023719;28;20088;-74
2022/08/12 12:55:36;;;;;;;2.10;0.80;;;;;;;;;;5039775;28;20045;-74
2022/08/12 12:58:11;;;;;;;4.10;1.20;;;;;;;;;;5040288;28;20037;-74
2022/08/12 13:00:43;;;;;;;2.20;1.02;;;;;;;;;;5038014;28;20476;-74
2022/08/12 13:03:11;;;;;;;3.58;1.27;;;;;;;;;;5037541;28;20105;-73
2022/08/12 13:05:41;;;;;;;2.10;0.95;;;;;;;;;;5039853;28;20076;-74
2022/08/12 13:08:24;;;;;;;4.32;1.08;;;;;;;;;;5037871;28;20095;-74
2022/08/12 13:10:50;;;;;;;1.10;0.90;;;;;;;;;;5020410;28;20056;-73
2022/08/12 13:13:17;;;;;;;2.30;0.90;;;;;;;;;;5039200;28;20059;-74
2022/08/12 13:15:42;;;;;;;1.02;0.82;;;;;;;;;;5038239;28;20491;-74
2022/08/12 13:18:08;;;;;;;1.35;0.75;;;;;;;;;;5039472;28;20059;-73
2022/08/12 13:20:33;;;;;;;1.75;0.80;;;;;;;;;;5039261;28;20064;-71
2022/08/12 13:22:59;;;;;;;3.60;0.90;;;;;;;;;;5040691;28;20495;-72
2022/08/12 13:25:26;;;;;;;0.50;0.50;;;;;;;;;;5039925;28;20141;-72
2022/08/12 13:27:51;;;;;;;3.05;0.70;;;;;;;;;;5040549;28;20481;-73
2022/08/12 13:30:20;;;;;;;0.77;0.70;;;;;;;;;;5040886;28;20105;-73
2022/08/12 13:32:56;;;;;;;0.60;0.60;;;;;;;;;;5038910;28;20056;-72
2022/08/12 13:35:21;;;;;;;1.77;0.70;;;;;;;;;;5039192;28;20056;-73
2022/08/12 13:37:54;;;;;;;3.03;0.80;;;;;;;;;;5038845;28;20053;-73
2022/08/12 13:40:25;;;;;;;3.08;0.90;;;;;;;;;;5036488;28;20087;-73
2022/08/12 13:42:56;;;;;;;4.93;0.70;;;;;;;;;;5037289;28;20158;-75
2022/08/12 13:45:21;;;;;;;2.05;0.70;;;;;;;;;;5039639;28;20045;-74
2022/08/12 13:48:02;;;;;;;2.53;0.75;;;;;;;;;;5045004;28;20048;-73
2022/08/12 13:50:37;;;;;;;0.95;0.68;;;;;;;;;;5038232;28;20076;-74
2022/08/12 13:53:10;;;;;;;0.93;0.60;;;;;;;;;;5037866;28;20610;-72
2022/08/12 13:55:37;;;;;;;1.58;0.52;;;;;;;;;;5039682;28;20053;-72
2022/08/12 13:58:04;;;;;;;2.83;0.82;;;;;;;;;;5038529;28;20043;-71
2022/08/12 14:00:32;;;;;;;1.92;0.80;;;;;;;;;;5038829;28;20037;-71
2022/08/12 14:02:58;;;;;;;2.58;1.30;;;;;;;;;;5038869;28;20107;-71
2022/08/12 14:05:25;;;;;;;0.60;0.60;;;;;;;;;;5039032;28;20049;-71
2022/08/12 14:08:00;;;;;;;4.38;0.70;;;;;;;;;;5037818;28;20778;-71
2022/08/12 14:10:42;;;;;;;3.33;0.82;;;;;;;;;;5039749;28;20056;-71
2022/08/12 14:13:13;;;;;;;0.70;0.70;;;;;;;;;;5038681;28;20049;-71
2022/08/12 14:15:49;;;;;;;6.50;0.80;;;;;;;;;;5038556;28;20516;-71
2022/08/12 14:18:15;;;;;;;4.75;0.80;;;;;;;;;;5040117;28;20041;-70
2022/08/12 14:20:43;;;;;;;2.88;1.00;;;;;;;;;;5037935;28;20048;-71
2022/08/12 14:23:10;;;;;;;1.13;0.68;;;;;;;;;;5038478;28;20087;-71
2022/08/12 14:25:38;;;;;;;1.13;0.80;;;;;;;;;;5039659;28;20067;-70
2022/08/12 14:28:11;;;;;;;1.50;0.80;;;;;;;;;;5037355;28;20049;-71
2022/08/12 14:31:04;;;;;;;2.28;1.00;;;;;;;;;;5040651;28;20051;-72
2022/08/12 14:33:33;;;;;;;0.98;0.70;;;;;;;;;;5023359;28;20045;-71
2022/08/12 14:36:00;;;;;;;2.08;0.95;;;;;;;;;;5041345;28;20049;-73
2022/08/12 14:38:32;;;;;;;3.55;0.70;;;;;;;;;;5040968;28;20049;-74
2022/08/12 14:41:00;;;;;;;1.65;0.68;;;;;;;;;;5039468;28;21077;-72
2022/08/12 14:43:32;;;;;;;0.82;0.60;;;;;;;;;;5040035;28;20356;-72
2022/08/12 14:46:19;;;;;;;1.27;0.60;;;;;;;;;;5041286;28;20155;-73
2022/08/12 14:48:47;;;;;;;0.50;0.50;;;;;;;;;;5039647;28;20470;-71
2022/08/12 14:51:17;;;;;;;3.42;0.80;;;;;;;;;;5040674;28;20053;-71
2022/08/12 14:53:44;;;;;;;1.13;0.70;;;;;;;;;;5042546;28;20136;-72
2022/08/12 14:56:11;;;;;;;1.30;0.75;;;;;;;;;;5042281;28;20055;-72
2022/08/12 15:01:37;;;;;;;3.10;0.60;;;;;;;;;;5037352;28;20041;-73
2022/08/12 15:01:38;;;;;;;1.48;0.90;;;;;;;;;;5040525;28;21170;-73
2022/08/12 15:04:05;;;;;;;1.98;0.60;;;;;;;;;;5040371;28;20052;-71
2022/08/12 15:06:30;;;;;;;0.70;0.70;;;;;;;;;;5042382;28;20056;-72
2022/08/12 15:08:56;;;;;;;1.80;0.70;;;;;;;;;;5041206;28;20044;-71
2022/08/12 15:11:21;;;;;;;1.77;0.63;;;;;;;;;;5040622;28;20045;-72
2022/08/12 15:13:50;;;;;;;2.67;0.73;;;;;;;;;;5042367;28;20069;-73
2022/08/12 15:16:16;;;;;;;3.22;0.80;;;;;;;;;;5042003;28;20098;-73
2022/08/12 15:18:42;;;;;;;1.10;0.80;;;;;;;;;;5040445;28;20532;-73
2022/08/12 15:21:09;;;;;;;2.15;0.70;;;;;;;;;;5038978;28;20036;-72
2022/08/12 15:23:35;;;;;;;0.70;0.70;;;;;;;;;;5042451;28;20045;-71
2022/08/12 15:26:04;;;;;;;2.85;0.60;;;;;;;;;;5042693;28;20090;-71
2022/08/12 15:28:32;;;;;;;1.73;0.73;;;;;;;;;;5042942;28;20691;-71
2022/08/12 15:30:59;;;;;;;1.27;0.60;;;;;;;;;;5041403;28;20037;-74
2022/08/12 15:33:27;;;;;;;2.58;0.82;;;;;;;;;;5041625;28;20527;-72
2022/08/12 15:35:53;;;;;;;1.73;0.50;;;;;;;;;;5041559;28;20037;-72
2022/08/12 15:38:19;;;;;;;2.80;0.88;;;;;;;;;;5041609;28;20056;-71
2022/08/12 15:40:49;;;;;;;4.55;0.70;;;;;;;;;;5041433;28;20044;-72
2022/08/12 15:43:16;;;;;;;0.90;0.85;;;;;;;;;;5040601;28;20140;-72
2022/08/12 15:45:42;;;;;;;11.82;0.95;;;;;;;;;;5040628;28;20053;-71
2022/08/12 15:48:09;;;;;;;3.15;0.77;;;;;;;;;;5041792;28;20063;-72
2022/08/12 15:50:36;;;;;;;2.45;0.70;;;;;;;;;;5040746;28;20048;-72
2022/08/12 15:53:03;;;;;;;0.80;0.68;;;;;;;;;;5037625;28;20040;-72
2022/08/12 15:55:29;;;;;;;5.78;0.82;;;;;;;;;;5038679;28;20135;-73
2022/08/12 15:57:56;;;;;;;3.75;0.98;;;;;;;;;;5039761;28;20041;-72
2022/08/12 16:00:22;;;;;;;2.45;0.80;;;;;;;;;;5039336;28;20045;-72
2022/08/12 16:02:49;;;;;;;4.13;0.73;;;;;;;;;;5039694;28;20044;-72
2022/08/12 16:05:17;;;;;;;1.30;0.80;;;;;;;;;;5037614;28;20154;-72
2022/08/12 16:07:49;;;;;;;1.30;0.90;;;;;;;;;;5040352;28;20442;-72
2022/08/12 16:10:19;;;;;;;1.73;0.93;;;;;;;;;;5041580;28;20171;-72
2022/08/12 16:12:47;;;;;;;0.60;0.60;;;;;;;;;;5040792;28;20052;-71
2022/08/12 16:15:14;;;;;;;2.50;0.80;;;;;;;;;;5039957;28;20052;-71
2022/08/12 16:17:44;;;;;;;3.03;0.80;;;;;;;;;;5040491;28;20417;-72
2022/08/12 16:20:10;;;;;;;1.75;0.70;;;;;;;;;;5056300;28;20048;-72
2022/08/12 16:22:37;;;;;;;5.75;1.02;;;;;;;;;;5041267;28;20049;-71
2022/08/12 16:25:08;;;;;;;2.15;0.70;;;;;;;;;;5040302;28;20037;-72
2022/08/12 16:27:34;;;;;;;;;;;;;;;;;;5040792;28;20136;-72
2022/08/12 16:30:00;;;;;;;2.22;0.73;;;;;;;;;;5041356;28;20503;-71
2022/08/12 16:32:26;;;;;;;3.42;0.90;;;;;;;;;;5038953;28;20045;-72
2022/08/12 16:34:53;;;;;;;2.85;0.90;;;;;;;;;;5040591;28;20048;-72
2022/08/12 16:37:20;;;;;;;3.25;0.98;;;;;;;;;;5040123;28;20151;-73
2022/08/12 16:39:45;;;;;;;3.03;0.85;;;;;;;;;;5039806;28;20049;-71
2022/08/12 16:42:12;;;;;;;7.80;0.90;;;;;;;;;;5040659;28;20895;-71
2022/08/12 16:44:37;;;;;;;0.85;0.82;;;;;;;;;;5040609;28;20053;-71